Flood From: 22-02-2018 16:00 Until: 23-02-2018 16:00 warning for: Flood Level: Yellow info button

Although rather usual in this region, locally or potentially dangerous phenomena are expected. (such as local winds, summer thunderstorms, rising streams or high waves) Be aware and pay attention to the latest weather updates, especially if you carry out activities exposed to weather or close to a stream or shoreline. 


Meteo18 Weather Cam more information Meteo18 Weather Cam


Thunder radar more information blitzortung!


Rain radar more information rain snow radar


Visit our other weather sites:

Template documentation
and downloads

And another site



Weather Underground History page Text

Daily Summary for August 23, 2017 Units:  English    Metric   Both
« Previous Day
Next Day »
Daily Weekly Monthly Yearly Custom
  High: Low: Average:
Temperature: TemperatureC °F 17.4 °F 21.7 °F
Dew Point: DewpointC °F 14.4 °F 17 °F
Humidity: Humidity % 60 % 75 %
Wind Speed: WindSpeedKMH mph 0.0 mph 5.7 mph
Wind Gust: WindSpeedGustKMH mph - -
Wind:- - West
Pressure: PressurehPa in 1014.8 in -
Precipitation: 0.0 in    
Historical Graphs
 
 
Tabular Data for August 23, 2017
Time Temperature Dew Point Pressure Wind Wind Speed Wind Gust Humidity Rainfall Rate (Hourly)
TemperatureC °F DewpointC °F PressurehPa in Calm     Humidity % HourlyPrecipMM in
00:02 21.5 °F 16.2 °F 1015.5 in North 1.6 mph 1.6 mph 72 % 0.0 in
00:07 21.4 °F 16.4 °F 1015.5 in North 3.2 mph 3.2 mph 73 % 0.0 in
00:12 21.4 °F 16.4 °F 1015.5 in North 1.6 mph 3.2 mph 73 % 0.0 in
00:17 21.3 °F 16.3 °F 1015.5 in NNW 1.6 mph 4.8 mph 73 % 0.0 in
00:22 21.3 °F 16.3 °F 1015.5 in Calm   4.8 mph 73 % 0.0 in
00:27 21.3 °F 16.3 °F 1015.1 in Calm   4.8 mph 73 % 0.0 in
00:32 21.4 °F 16.1 °F 1015.1 in Calm   4.8 mph 72 % 0.0 in
00:37 21.4 °F 16.1 °F 1015.1 in North 1.6 mph 4.8 mph 72 % 0.0 in
00:42 21.3 °F 16.3 °F 1015.1 in Calm   4.8 mph 73 % 0.0 in
00:52 21.2 °F 16.2 °F 1015.5 in North 1.6 mph 3.2 mph 73 % 0.0 in
00:57 21.1 °F 16.1 °F 1015.1 in North 3.2 mph 4.8 mph 73 % 0.0 in
01:02 21.0 °F 16.2 °F 1015.1 in Calm   4.8 mph 74 % 0.0 in
01:12 20.6 °F 16.0 °F 1015.5 in NNW 3.2 mph 3.2 mph 75 % 0.0 in
01:22 20.3 °F 15.9 °F 1015.1 in North 1.6 mph 3.2 mph 76 % 0.0 in
01:32 20.3 °F 15.9 °F 1015.1 in Calm   3.2 mph 76 % 0.0 in
01:37 20.3 °F 15.7 °F 1015.1 in Calm   3.2 mph 75 % 0.0 in
01:42 20.2 °F 15.8 °F 1015.1 in NW 1.6 mph 3.2 mph 76 % 0.0 in
01:52 19.7 °F 15.8 °F 1015.1 in NNW 1.6 mph 3.2 mph 78 % 0.0 in
02:02 19.6 °F 15.7 °F 1015.1 in Calm   3.2 mph 78 % 0.0 in
02:12 19.2 °F 15.7 °F 1015.1 in NW 1.6 mph 3.2 mph 80 % 0.0 in
02:17 19.2 °F 15.7 °F 1015.1 in WNW 1.6 mph 3.2 mph 80 % 0.0 in
02:22 18.9 °F 15.8 °F 1015.1 in Calm   3.2 mph 82 % 0.0 in
02:27 18.7 °F 15.6 °F 1015.1 in WNW 1.6 mph 3.2 mph 82 % 0.0 in
02:32 18.4 °F 15.5 °F 1015.1 in WNW 1.6 mph 3.2 mph 83 % 0.0 in
02:42 18.4 °F 15.6 °F 1015.1 in WNW 3.2 mph 3.2 mph 84 % 0.0 in
02:47 18.3 °F 15.4 °F 1015.1 in West 3.2 mph 3.2 mph 83 % 0.0 in
02:52 18.2 °F 15.5 °F 1015.1 in WNW 1.6 mph 3.2 mph 84 % 0.0 in
03:02 18.3 °F 15.5 °F 1015.1 in WNW 1.6 mph 3.2 mph 84 % 0.0 in
03:12 18.4 °F 15.3 °F 1015.1 in Calm   3.2 mph 82 % 0.0 in
03:17 18.3 °F 15.2 °F 1014.8 in NNW 1.6 mph 1.6 mph 82 % 0.0 in
03:22 18.2 °F 15.3 °F 1014.8 in Calm   1.6 mph 83 % 0.0 in
03:32 18.0 °F 15.1 °F 1014.8 in Calm   1.6 mph 83 % 0.0 in
03:42 17.8 °F 15.1 °F 1015.1 in WNW 1.6 mph 1.6 mph 84 % 0.0 in
03:47 17.9 °F 15.0 °F 1015.1 in SW 1.6 mph 3.2 mph 83 % 0.0 in
03:52 17.9 °F 14.8 °F 1015.1 in Calm   3.2 mph 82 % 0.0 in
03:57 17.8 °F 14.7 °F 1015.1 in Calm   3.2 mph 82 % 0.0 in
04:02 17.9 °F 15.0 °F 1015.1 in Calm   3.2 mph 83 % 0.0 in
04:07 18.1 °F 15.0 °F 1015.1 in Calm   3.2 mph 82 % 0.0 in
04:12 18.2 °F 14.9 °F 1015.1 in Calm   3.2 mph 81 % 0.0 in
04:17 18.7 °F 15.0 °F 1015.1 in Calm   3.2 mph 79 % 0.0 in
04:22 18.8 °F 14.9 °F 1015.1 in Calm   3.2 mph 78 % 0.0 in
04:32 18.4 °F 14.7 °F 1015.1 in Calm   3.2 mph 79 % 0.0 in
04:37 18.3 °F 14.8 °F 1015.1 in Calm   1.6 mph 80 % 0.0 in
04:42 18.1 °F 14.6 °F 1015.1 in Calm   1.6 mph 80 % 0.0 in
04:47 17.8 °F 14.7 °F 1015.1 in Calm   1.6 mph 82 % 0.0 in
04:57 17.6 °F 14.5 °F 1015.1 in Calm   1.6 mph 82 % 0.0 in
05:07 17.4 °F 14.5 °F 1015.5 in SW 1.6 mph 1.6 mph 83 % 0.0 in
05:12 17.7 °F 14.6 °F 1015.1 in SSW 3.2 mph 3.2 mph 82 % 0.0 in
05:22 17.7 °F 14.4 °F 1015.1 in WSW 1.6 mph 4.8 mph 81 % 0.0 in
05:32 17.7 °F 14.8 °F 1015.5 in Calm   4.8 mph 83 % 0.0 in
05:42 18.6 °F 15.8 °F 1015.5 in West 4.8 mph 6.4 mph 84 % 0.0 in
05:52 18.8 °F 16.9 °F 1015.5 in West 16.1 mph 17.7 mph 89 % 0.0 in
05:57 18.8 °F 17.1 °F 1015.5 in WNW 12.9 mph 19.3 mph 90 % 0.0 in
06:02 18.9 °F 17.4 °F 1015.8 in WSW 9.7 mph 19.3 mph 91 % 0.0 in
06:12 19.1 °F 17.6 °F 1015.8 in West 9.7 mph 24.1 mph 91 % 0.0 in
06:17 19.1 °F 17.8 °F 1015.8 in West 11.3 mph 20.9 mph 92 % 0.0 in
06:22 19.1 °F 17.8 °F 1015.8 in WSW 9.7 mph 20.9 mph 92 % 0.0 in
06:32 19.2 °F 17.7 °F 1015.8 in WSW 3.2 mph 19.3 mph 91 % 0.0 in
06:42 19.3 °F 17.8 °F 1015.8 in West 9.7 mph 17.7 mph 91 % 0.0 in
06:52 19.3 °F 17.6 °F 1016.1 in WNW 8.0 mph 16.1 mph 90 % 0.0 in
07:02 19.3 °F 17.6 °F 1016.1 in WNW 8.0 mph 27.4 mph 90 % 0.0 in
07:12 19.4 °F 17.7 °F 1016.1 in SW 9.7 mph 20.9 mph 90 % 0.0 in
07:17 19.4 °F 17.5 °F 1016.5 in West 6.4 mph 17.7 mph 89 % 0.0 in
07:22 19.4 °F 17.5 °F 1016.5 in WNW 4.8 mph 17.7 mph 89 % 0.0 in
07:32 19.4 °F 17.4 °F 1016.5 in West 11.3 mph 17.7 mph 88 % 0.0 in
07:42 19.3 °F 17.1 °F 1016.8 in West 9.7 mph 20.9 mph 87 % 0.0 in
07:47 19.3 °F 17.1 °F 1016.8 in SW 8.0 mph 27.4 mph 87 % 0.0 in
07:57 19.4 °F 17.2 °F 1016.8 in WSW 4.8 mph 27.4 mph 87 % 0.0 in
08:02 19.4 °F 17.2 °F 1016.8 in SW 4.8 mph 27.4 mph 87 % 0.0 in
08:07 19.4 °F 17.2 °F 1016.8 in WSW 9.7 mph 27.4 mph 87 % 0.0 in
08:17 19.4 °F 17.2 °F 1016.8 in SW 8.0 mph 22.5 mph 87 % 0.0 in
08:22 19.4 °F 17.2 °F 1016.8 in SW 3.2 mph 22.5 mph 87 % 0.0 in
08:32 19.5 °F 17.1 °F 1017.2 in SW 9.7 mph 20.9 mph 86 % 0.0 in
08:42 19.7 °F 17.1 °F 1017.2 in SSW 8.0 mph 27.4 mph 85 % 0.0 in
08:47 19.9 °F 17.1 °F 1017.2 in West 12.9 mph 22.5 mph 84 % 0.0 in
08:52 19.9 °F 16.9 °F 1017.2 in SSE 8.0 mph 22.5 mph 83 % 0.0 in
09:02 20.2 °F 17.0 °F 1017.2 in SSW 8.0 mph 22.5 mph 82 % 0.0 in
09:12 20.2 °F 17.0 °F 1017.2 in WSW 16.1 mph 24.1 mph 82 % 0.0 in
09:17 20.3 °F 17.1 °F 1017.2 in WSW 16.1 mph 29.0 mph 82 % 0.0 in
09:22 20.2 °F 17.0 °F 1017.2 in SW 12.9 mph 29.0 mph 82 % 0.0 in
09:32 20.3 °F 17.3 °F 1017.2 in South 6.4 mph 27.4 mph 83 % 0.0 in
09:42 20.4 °F 17.2 °F 1017.2 in WSW 11.3 mph 25.7 mph 82 % 0.0 in
09:52 20.3 °F 17.1 °F 1017.5 in WSW 16.1 mph 20.9 mph 82 % 0.0 in
09:57 20.3 °F 17.1 °F 1017.2 in WSW 14.5 mph 29.0 mph 82 % 0.0 in
10:02 20.2 °F 17.0 °F 1017.5 in SSW 4.8 mph 29.0 mph 82 % 0.0 in
10:07 20.3 °F 17.1 °F 1017.5 in WSW 3.2 mph 25.7 mph 82 % 0.0 in
10:12 20.3 °F 17.1 °F 1017.5 in SW 16.1 mph 25.7 mph 82 % 0.0 in
10:17 20.3 °F 17.1 °F 1017.5 in West 17.7 mph 22.5 mph 82 % 0.0 in
10:22 20.2 °F 17.0 °F 1017.5 in SSW 8.0 mph 22.5 mph 82 % 0.0 in
10:32 20.2 °F 17.0 °F 1017.5 in West 11.3 mph 24.1 mph 82 % 0.0 in
10:42 20.2 °F 17.0 °F 1017.5 in WSW 6.4 mph 22.5 mph 82 % 0.0 in
10:47 20.3 °F 17.1 °F 1017.5 in West 6.4 mph 19.3 mph 82 % 0.0 in
10:52 20.3 °F 16.9 °F 1017.5 in WSW 9.7 mph 19.3 mph 81 % 0.0 in
11:02 20.3 °F 16.9 °F 1017.5 in WSW 4.8 mph 16.1 mph 81 % 0.0 in
11:12 20.4 °F 17.0 °F 1017.5 in SW 14.5 mph 16.1 mph 81 % 0.0 in
11:17 20.5 °F 17.1 °F 1017.8 in West 4.8 mph 19.3 mph 81 % 0.0 in
11:22 20.6 °F 17.2 °F 1017.8 in WSW 11.3 mph 19.3 mph 81 % 0.0 in
11:32 20.7 °F 17.1 °F 1017.8 in WSW 6.4 mph 19.3 mph 80 % 0.0 in
11:42 20.7 °F 16.9 °F 1017.8 in WSW 12.9 mph 22.5 mph 79 % 0.0 in
11:52 20.8 °F 17.0 °F 1017.8 in WSW 12.9 mph 24.1 mph 79 % 0.0 in
12:02 20.9 °F 17.1 °F 1017.8 in SSW 11.3 mph 22.5 mph 79 % 0.0 in
12:12 21.0 °F 17.0 °F 1017.8 in WSW 14.5 mph 20.9 mph 78 % 0.0 in
12:17 21.2 °F 17.2 °F 1017.8 in South 4.8 mph 25.7 mph 78 % 0.0 in
12:22 21.3 °F 17.1 °F 1017.8 in WSW 12.9 mph 25.7 mph 77 % 0.0 in
12:32 21.6 °F 17.4 °F 1017.8 in SW 11.3 mph 25.7 mph 77 % 0.0 in
12:42 21.7 °F 17.3 °F 1017.8 in West 6.4 mph 20.9 mph 76 % 0.0 in
12:52 22.1 °F 17.5 °F 1017.8 in SW 16.1 mph 25.7 mph 75 % 0.0 in
13:02 22.2 °F 17.3 °F 1017.8 in SW 19.3 mph 19.3 mph 74 % 0.0 in
13:07 22.3 °F 17.4 °F 1018.2 in West 11.3 mph 25.7 mph 74 % 0.0 in
13:12 22.6 °F 17.5 °F 1017.8 in West 9.7 mph 25.7 mph 73 % 0.0 in
13:22 23.2 °F 17.9 °F 1017.8 in West 9.7 mph 22.5 mph 72 % 0.0 in
13:32 23.6 °F 17.8 °F 1017.8 in West 8.0 mph 20.9 mph 70 % 0.0 in
13:42 24.1 °F 17.8 °F 1017.8 in WSW 9.7 mph 20.9 mph 68 % 0.0 in
13:52 24.4 °F 17.6 °F 1017.8 in West 14.5 mph 22.5 mph 66 % 0.0 in
14:07 24.8 °F 18.3 °F 1017.5 in West 11.3 mph 22.5 mph 67 % 0.0 in
14:12 24.9 °F 18.3 °F 1017.5 in SW 8.0 mph 22.5 mph 67 % 0.0 in
14:17 25.1 °F 18.1 °F 1017.8 in WNW 9.7 mph 20.9 mph 65 % 0.0 in
14:22 25.0 °F 18.2 °F 1017.5 in West 11.3 mph 20.9 mph 66 % 0.0 in
14:27 25.2 °F 18.2 °F 1017.5 in WSW 16.1 mph 20.9 mph 65 % 0.0 in
14:32 25.1 °F 18.3 °F 1017.5 in West 16.1 mph 20.9 mph 66 % 0.0 in
14:37 25.2 °F 18.4 °F 1017.5 in WSW 9.7 mph 24.1 mph 66 % 0.0 in
14:42 25.3 °F 18.2 °F 1017.5 in SW 12.9 mph 24.1 mph 65 % 0.0 in
14:52 25.4 °F 18.3 °F 1017.8 in WSW 6.4 mph 24.1 mph 65 % 0.0 in
14:57 25.5 °F 18.4 °F 1017.5 in WNW 11.3 mph 24.1 mph 65 % 0.0 in
15:02 25.6 °F 18.5 °F 1017.8 in WSW 12.9 mph 24.1 mph 65 % 0.0 in
15:12 25.5 °F 18.4 °F 1017.5 in West 12.9 mph 24.1 mph 65 % 0.0 in
15:17 25.8 °F 18.7 °F 1017.5 in West 12.9 mph 20.9 mph 65 % 0.0 in
15:22 25.8 °F 18.5 °F 1017.5 in WSW 11.3 mph 20.9 mph 64 % 0.0 in
15:32 25.8 °F 18.5 °F 1017.5 in WNW 11.3 mph 20.9 mph 64 % 0.0 in
15:37 25.8 °F 18.5 °F 1017.5 in West 12.9 mph 19.3 mph 64 % 0.0 in
15:42 25.8 °F 18.5 °F 1017.5 in SW 4.8 mph 19.3 mph 64 % 0.0 in
15:47 25.8 °F 18.5 °F 1017.5 in WNW 6.4 mph 17.7 mph 64 % 0.0 in
15:52 26.0 °F 18.4 °F 1017.5 in West 14.5 mph 17.7 mph 63 % 0.0 in
15:57 26.0 °F 18.7 °F 1017.5 in WNW 6.4 mph 17.7 mph 64 % 0.0 in
16:02 26.2 °F 18.6 °F 1017.5 in WNW 11.3 mph 17.7 mph 63 % 0.0 in
16:12 26.2 °F 18.6 °F 1017.5 in West 8.0 mph 20.9 mph 63 % 0.0 in
16:17 26.1 °F 18.8 °F 1017.5 in West 9.7 mph 20.9 mph 64 % 0.0 in
16:22 26.0 °F 18.7 °F 1017.5 in West 12.9 mph 20.9 mph 64 % 0.0 in
16:32 26.0 °F 18.4 °F 1017.5 in West 11.3 mph 20.9 mph 63 % 0.0 in
16:42 25.9 °F 18.6 °F 1017.5 in SW 19.3 mph 20.9 mph 64 % 0.0 in
16:47 25.8 °F 18.7 °F 1017.5 in West 9.7 mph 22.5 mph 65 % 0.0 in
16:52 26.1 °F 18.8 °F 1017.5 in WNW 14.5 mph 22.5 mph 64 % 0.0 in
17:02 26.1 °F 18.2 °F 1017.5 in WSW 9.7 mph 22.5 mph 62 % 0.0 in
17:12 26.3 °F 18.7 °F 1017.2 in NW 6.4 mph 20.9 mph 63 % 0.0 in
17:17 26.2 °F 18.6 °F 1017.2 in WSW 3.2 mph 16.1 mph 63 % 0.0 in
17:22 26.2 °F 18.6 °F 1017.5 in West 8.0 mph 16.1 mph 63 % 0.0 in
17:27 26.2 °F 18.8 °F 1017.2 in WSW 8.0 mph 16.1 mph 64 % 0.0 in
17:32 26.3 °F 18.9 °F 1017.2 in West 4.8 mph 16.1 mph 64 % 0.0 in
17:37 26.4 °F 18.5 °F 1017.5 in WSW 6.4 mph 16.1 mph 62 % 0.0 in
17:42 26.3 °F 18.7 °F 1017.5 in WNW 8.0 mph 16.1 mph 63 % 0.0 in
17:47 26.3 °F 18.4 °F 1017.5 in WSW 4.8 mph 14.5 mph 62 % 0.0 in
17:52 26.2 °F 18.6 °F 1017.5 in WSW 4.8 mph 14.5 mph 63 % 0.0 in
17:57 26.3 °F 18.7 °F 1017.5 in West 3.2 mph 12.9 mph 63 % 0.0 in
18:02 26.2 °F 18.6 °F 1017.5 in WNW 6.4 mph 12.9 mph 63 % 0.0 in
18:07 26.2 °F 18.6 °F 1017.5 in NW 6.4 mph 12.9 mph 63 % 0.0 in
18:12 26.2 °F 18.8 °F 1017.5 in West 9.7 mph 12.9 mph 64 % 0.0 in
18:17 26.1 °F 18.5 °F 1017.5 in WNW 4.8 mph 14.5 mph 63 % 0.0 in
18:22 26.0 °F 18.4 °F 1017.5 in WNW 1.6 mph 14.5 mph 63 % 0.0 in
18:32 26.4 °F 18.5 °F 1017.2 in WSW 6.4 mph 12.9 mph 62 % 0.0 in
18:37 26.4 °F 18.5 °F 1017.2 in WNW 4.8 mph 12.9 mph 62 % 0.0 in
18:42 26.5 °F 18.9 °F 1017.2 in WNW 8.0 mph 11.3 mph 63 % 0.0 in
18:52 26.7 °F 18.6 °F 1017.5 in North 3.2 mph 12.9 mph 61 % 0.0 in
18:57 26.7 °F 18.6 °F 1017.2 in WNW 8.0 mph 9.7 mph 61 % 0.0 in
19:02 26.6 °F 18.2 °F 1017.2 in NW 4.8 mph 9.7 mph 60 % 0.0 in
19:12 26.3 °F 18.2 °F 1017.5 in NW 6.4 mph 11.3 mph 61 % 0.0 in
19:17 26.4 °F 18.5 °F 1017.5 in NW 1.6 mph 11.3 mph 62 % 0.0 in
19:22 26.4 °F 18.5 °F 1017.5 in WNW 3.2 mph 11.3 mph 62 % 0.0 in
19:32 26.2 °F 18.1 °F 1017.5 in WSW 9.7 mph 11.3 mph 61 % 0.0 in
19:37 26.1 °F 18.2 °F 1017.5 in West 8.0 mph 12.9 mph 62 % 0.0 in
19:42 25.9 °F 18.1 °F 1017.5 in WNW 6.4 mph 12.9 mph 62 % 0.0 in
19:47 25.9 °F 18.1 °F 1017.5 in WNW 1.6 mph 14.5 mph 62 % 0.0 in
19:52 26.0 °F 18.2 °F 1017.5 in NW 4.8 mph 14.5 mph 62 % 0.0 in
19:57 25.7 °F 17.9 °F 1017.5 in WNW 9.7 mph 14.5 mph 62 % 0.0 in
20:02 25.5 °F 17.9 °F 1017.5 in WNW 3.2 mph 14.5 mph 63 % 0.0 in
20:12 25.1 °F 18.1 °F 1017.5 in West 1.6 mph 14.5 mph 65 % 0.0 in
20:17 24.8 °F 18.0 °F 1017.8 in West 1.6 mph 9.7 mph 66 % 0.0 in
20:27 24.2 °F 17.7 °F 1017.8 in WNW 3.2 mph 8.0 mph 67 % 0.0 in
20:32 24.0 °F 17.7 °F 1017.5 in WNW 3.2 mph 8.0 mph 68 % 0.0 in
20:37 23.8 °F 17.8 °F 1017.5 in WNW 1.6 mph 8.0 mph 69 % 0.0 in
20:42 23.6 °F 17.6 °F 1017.5 in WNW 3.2 mph 8.0 mph 69 % 0.0 in
20:47 23.3 °F 17.5 °F 1017.8 in Calm   4.8 mph 70 % 0.0 in
20:52 23.2 °F 17.4 °F 1017.8 in NW 1.6 mph 4.8 mph 70 % 0.0 in
20:57 22.9 °F 17.4 °F 1017.8 in WNW 4.8 mph 4.8 mph 71 % 0.0 in
21:02 22.7 °F 17.4 °F 1017.8 in NW 1.6 mph 4.8 mph 72 % 0.0 in
21:07 22.5 °F 17.2 °F 1017.8 in WNW 4.8 mph 4.8 mph 72 % 0.0 in
21:12 22.4 °F 17.1 °F 1017.8 in WNW 1.6 mph 4.8 mph 72 % 0.0 in
21:17 22.3 °F 17.0 °F 1017.8 in Calm   6.4 mph 72 % 0.0 in
21:22 22.2 °F 17.1 °F 1017.8 in WNW 1.6 mph 6.4 mph 73 % 0.0 in
21:32 22.0 °F 17.2 °F 1017.8 in Calm   4.8 mph 74 % 0.0 in
21:37 21.8 °F 17.0 °F 1017.8 in North 1.6 mph 6.4 mph 74 % 0.0 in
21:42 21.7 °F 17.1 °F 1017.8 in Calm   6.4 mph 75 % 0.0 in
21:47 21.6 °F 17.0 °F 1017.8 in Calm   4.8 mph 75 % 0.0 in
21:52 21.4 °F 17.0 °F 1018.2 in NNW 1.6 mph 4.8 mph 76 % 0.0 in
21:57 21.3 °F 16.9 °F 1018.2 in North 1.6 mph 3.2 mph 76 % 0.0 in
22:02 21.2 °F 17.0 °F 1018.2 in North 3.2 mph 3.2 mph 77 % 0.0 in
22:07 21.2 °F 17.0 °F 1018.2 in NNW 1.6 mph 3.2 mph 77 % 0.0 in
22:12 21.2 °F 17.0 °F 1018.2 in North 1.6 mph 3.2 mph 77 % 0.0 in
22:17 21.2 °F 17.0 °F 1018.2 in North 1.6 mph 3.2 mph 77 % 0.0 in
22:22 21.1 °F 16.9 °F 1018.2 in Calm   3.2 mph 77 % 0.0 in
22:27 20.9 °F 16.9 °F 1018.2 in Calm   3.2 mph 78 % 0.0 in
22:32 20.7 °F 16.7 °F 1018.2 in Calm   3.2 mph 78 % 0.0 in
22:37 20.4 °F 16.6 °F 1018.2 in Calm   1.6 mph 79 % 0.0 in
22:42 20.3 °F 16.7 °F 1018.5 in Calm   1.6 mph 80 % 0.0 in
22:47 20.3 °F 16.7 °F 1018.5 in Calm   1.6 mph 80 % 0.0 in
22:52 20.3 °F 16.7 °F 1018.5 in NNW 1.6 mph 1.6 mph 80 % 0.0 in
23:02 20.0 °F 16.6 °F 1018.5 in Calm   1.6 mph 81 % 0.0 in
23:12 19.9 °F 16.7 °F 1018.5 in NNW 1.6 mph 1.6 mph 82 % 0.0 in
23:17 19.9 °F 16.5 °F 1018.5 in NNW 1.6 mph 3.2 mph 81 % 0.0 in
23:22 19.8 °F 16.4 °F 1018.5 in Calm   3.2 mph 81 % 0.0 in
23:27 19.7 °F 16.5 °F 1018.5 in Calm   1.6 mph 82 % 0.0 in
23:32 19.4 °F 16.2 °F 1018.5 in Calm   1.6 mph 82 % 0.0 in
23:37 19.2 °F 16.4 °F 1018.5 in Calm   1.6 mph 84 % 0.0 in
23:42 19.2 °F 16.4 °F 1018.8 in Calm   1.6 mph 84 % 0.0 in
23:47 19.0 °F 16.2 °F 1018.5 in NW 1.6 mph 1.6 mph 84 % 0.0 in
23:52 19.0 °F 16.4 °F 1018.5 in Calm   1.6 mph 85 % 0.0 in
23:57 18.8 °F 16.0 °F 1018.5 in Calm   1.6 mph 84 % 0.0 in
Meteo18
Compliments of Weather Underground - 4 mb

Script developed by  Jim McMurry - jmcmurry@mwt.net Adapted for the template by  Wim van der Kuil - Leuven-Template.eu

You find our weather info also at:

European Weather Network

Weather Underground

Equipment we use:

Weather-station
Davis Vue

Weather-program
Meteobridge

Weather-server
Raspberry PI 2 B+

Provider
1 and 1

Davis Vue

Meteobridge

Raspberry PI 2 B+

1 and 1